Pierson Station, Illinois
Current Conditions -  °F | °C
As of 10:54 AM on Thursday 30 Oct 2014 (Local Time) from KDEC Reporting Station
Clear Clear  
Wind Chill: 50°   Ceiling: Unl
Heat Index: 50°   Visibility: 10mi
Dew Point: 39°   Wind: 9mph
Humidity: 66%   Direction: 180°S
Pressure: 30.15"   Gusts: NA
Location:  39.8007°N, 88.5678°W
Report Text: KDEC 301554Z 18008KT 10SM CLR 10/04 A3015 RMK AO2 SLP211 T01000039
Loading
Personal Weather Stations






























Interactive Weather Map
Tropical Storm Tracking
New forecast layout! Learn more

10-Day Weather Forecast

Advertisements
Track Severe Weather on mobile